Wawarsing, New York
Current Conditions -  °F | °C
As of 8:08 PM on Wednesday 26 Nov 2014 (Local Time) from KMGJ Reporting Station
Light Snow Light Snow  
Wind Chill: 27°   Ceiling: 1800
Heat Index: 34°   Visibility: 3mi
Dew Point: 31°   Wind: 8mph
Humidity: 89%   Direction: 350°N
Pressure: 29.84"   Gusts: NA
Location:  41.76°N, 74.36°W
Report Text: KMGJ 270108Z AUTO 35007KT 3SM -SN BR FEW006 OVC018 01/M01 A2984 RMK AO2 P0000 T00111006 TSNO $
Loading
Personal Weather Stations






























Interactive Weather Map New forecast layout! Learn more

10-Day Weather Forecast

Advertisements
Track Severe Weather on mobile